Leonard, Michigan
Current Conditions -  °F | °C
As of 12:53 AM on Saturday 29 Nov 2014 (Local Time) from KD95 Reporting Station
Overcast Overcast  
Wind Chill: 20°   Ceiling: 3400
Heat Index: 27°   Visibility: 10mi
Dew Point: 24°   Wind: 7mph
Humidity: 87%   Direction: 170°S
Pressure: 30.05"   Gusts: NA
Location:  42.87°N, 83.14°W
Report Text: KD95 290553Z AUTO 17006KT 10SM SCT020 OVC034 M03/M05 A3005 RMK AO2 T10271046
Loading
Personal Weather Stations






























Interactive Weather Map New forecast layout! Learn more

10-Day Weather Forecast

Advertisements
Track Severe Weather on mobile